Time;durP1;ratioP1;P1;durP2;ratioP2;P2;SDS_P1;SDS_P2;PMS_P1;PMS_P2;Temp;Humidity;BMP_temperature;BMP_pressure;BME280_temperature;BME280_humidity;BME280_pressure;Samples;Min_cycle;Max_cycle;Signal;HPM_P1;HPM_P2
2023/12/03 00:00:34;;;;;;;20.60;12.88;;;-2.20;1.00;;;;;;7382549;19;20007;-68
2023/12/03 00:03:04;;;;;;;18.15;12.57;;;-2.20;1.00;;;;;;7380859;19;20006;-69
2023/12/03 00:05:35;;;;;;;19.95;14.45;;;-2.10;1.00;;;;;;7379928;19;20011;-69
2023/12/03 00:08:05;;;;;;;18.70;12.93;;;-2.10;1.00;;;;;;7381615;19;20082;-68
2023/12/03 00:10:37;;;;;;;19.17;13.93;;;-2.10;1.00;;;;;;7378370;19;20443;-68
2023/12/03 00:13:07;;;;;;;17.88;13.75;;;-2.20;1.00;;;;;;7377187;19;20098;-68
2023/12/03 00:15:37;;;;;;;17.55;12.88;;;-2.10;1.00;;;;;;7381077;19;20014;-68
2023/12/03 00:18:08;;;;;;;18.05;12.65;;;-2.10;1.00;;;;;;7376131;19;20010;-68
2023/12/03 00:20:38;;;;;;;20.00;13.65;;;-2.10;1.00;;;;;;7381030;19;20015;-67
2023/12/03 00:23:08;;;;;;;18.25;12.18;;;-2.10;1.00;;;;;;7376058;19;20015;-70
2023/12/03 00:25:40;;;;;;;20.67;13.55;;;-2.10;1.00;;;;;;7379755;19;20015;-69
2023/12/03 00:28:11;;;;;;;17.23;12.93;;;-2.10;1.00;;;;;;7375979;19;20031;-69
2023/12/03 00:30:40;;;;;;;18.80;12.15;;;-2.10;1.00;;;;;;7381081;19;20035;-67
2023/12/03 00:33:10;;;;;;;24.88;15.02;;;-2.10;1.00;;;;;;7379963;19;20054;-68
2023/12/03 00:35:40;;;;;;;22.25;13.35;;;-2.10;1.00;;;;;;7379925;19;20663;-68
2023/12/03 00:38:10;;;;;;;18.20;12.55;;;-2.10;1.00;;;;;;7381815;19;20021;-68
2023/12/03 00:40:43;;;;;;;17.67;12.40;;;-2.10;1.00;;;;;;7376952;19;20003;-68
2023/12/03 00:43:13;;;;;;;22.27;13.98;;;-2.10;1.00;;;;;;7377973;19;20019;-69
2023/12/03 00:45:43;;;;;;;17.30;11.88;;;-2.00;1.00;;;;;;7376076;19;20014;-68
2023/12/03 00:48:13;;;;;;;18.42;12.25;;;-2.20;1.00;;;;;;7377239;19;20018;-68
2023/12/03 00:50:43;;;;;;;20.02;12.43;;;-2.20;1.00;;;;;;7377961;19;20794;-68
2023/12/03 00:53:13;;;;;;;17.73;12.20;;;-2.10;1.00;;;;;;7377732;19;20022;-69
2023/12/03 00:55:46;;;;;;;18.13;12.45;;;-2.10;1.00;;;;;;7377022;19;20027;-68
2023/12/03 00:58:16;;;;;;;16.10;10.80;;;-2.10;1.00;;;;;;7379377;19;20028;-68
2023/12/03 01:00:46;;;;;;;15.50;10.77;;;-2.10;1.00;;;;;;7377452;19;20018;-68
2023/12/03 01:03:16;;;;;;;17.42;11.40;;;-2.20;1.00;;;;;;7376879;19;20748;-68
2023/12/03 01:05:46;;;;;;;18.38;11.82;;;-2.10;1.00;;;;;;7376889;19;20018;-68
2023/12/03 01:08:16;;;;;;;16.30;11.02;;;-2.10;1.00;;;;;;7376511;19;20519;-70
2023/12/03 01:10:49;;;;;;;18.15;12.20;;;-2.00;1.00;;;;;;7377061;19;20018;-69
2023/12/03 01:13:19;;;;;;;18.08;12.13;;;-2.10;1.00;;;;;;7377168;19;20036;-69
2023/12/03 01:15:51;;;;;;;16.60;12.10;;;-2.10;1.00;;;;;;7377682;19;20058;-69
2023/12/03 01:18:21;;;;;;;16.73;11.73;;;-2.00;1.00;;;;;;7377989;19;20014;-68
2023/12/03 01:20:52;;;;;;;18.40;11.63;;;-2.10;1.00;;;;;;7377871;19;20019;-68
2023/12/03 01:23:22;;;;;;;21.10;13.02;;;-2.00;1.00;;;;;;7377475;19;20090;-69
2023/12/03 01:25:55;;;;;;;17.05;12.02;;;-2.10;1.00;;;;;;7374198;19;20010;-69
2023/12/03 01:28:25;;;;;;;18.60;12.18;;;-2.10;1.00;;;;;;7377718;19;20007;-69
2023/12/03 01:30:55;;;;;;;17.33;11.85;;;-2.00;1.00;;;;;;7378065;19;20035;-70
2023/12/03 01:33:25;;;;;;;17.33;12.15;;;-2.00;1.00;;;;;;7379109;19;20589;-68
2023/12/03 01:35:55;;;;;;;21.10;14.30;;;-2.00;1.00;;;;;;7377953;19;20376;-69
2023/12/03 01:38:25;;;;;;;22.67;13.90;;;-1.90;1.00;;;;;;7377330;19;20015;-69
2023/12/03 01:40:57;;;;;;;20.33;13.32;;;-2.00;1.00;;;;;;7376973;19;20015;-69
2023/12/03 01:43:27;;;;;;;20.35;13.00;;;-2.10;1.00;;;;;;7378031;19;20011;-68
2023/12/03 01:45:58;;;;;;;21.90;13.25;;;-2.00;1.00;;;;;;7375965;19;20010;-69
2023/12/03 01:48:30;;;;;;;20.10;13.35;;;-2.00;1.00;;;;;;7376564;19;20018;-67
2023/12/03 01:51:01;;;;;;;19.33;13.55;;;-2.00;1.00;;;;;;7382196;19;20007;-69
2023/12/03 01:53:31;;;;;;;19.42;13.13;;;-2.00;1.00;;;;;;7381092;19;20037;-69
2023/12/03 01:56:04;;;;;;;19.75;13.50;;;-2.00;1.00;;;;;;7374470;19;20031;-69
2023/12/03 01:58:34;;;;;;;20.10;12.60;;;-2.10;1.00;;;;;;7376234;19;20018;-69
2023/12/03 02:01:05;;;;;;;18.98;12.38;;;-2.10;1.00;;;;;;7376098;19;20011;-68
2023/12/03 02:03:36;;;;;;;19.85;13.50;;;-2.00;1.00;;;;;;7375672;19;20051;-69
2023/12/03 02:06:06;;;;;;;21.25;13.65;;;-2.10;1.00;;;;;;7374647;19;20542;-69
2023/12/03 02:08:37;;;;;;;18.75;13.30;;;-2.00;1.00;;;;;;7375264;19;20026;-67
2023/12/03 02:11:10;;;;;;;20.95;13.27;;;-2.10;1.00;;;;;;7375720;19;20078;-68
2023/12/03 02:13:41;;;;;;;18.65;13.40;;;-2.00;1.00;;;;;;7374628;19;20081;-68
2023/12/03 02:16:12;;;;;;;19.92;13.07;;;-2.10;1.00;;;;;;7374399;19;20038;-68
2023/12/03 02:18:42;;;;;;;19.90;13.80;;;-2.00;1.00;;;;;;7374738;19;20011;-69
2023/12/03 02:21:12;;;;;;;21.42;14.00;;;-2.00;1.00;;;;;;7376077;19;20127;-68
2023/12/03 02:23:46;;;;;;;21.83;13.65;;;-2.00;1.00;;;;;;7375753;19;20089;-68
2023/12/03 02:26:16;;;;;;;;;;;-2.10;1.00;;;;;;7376789;19;20010;-69
2023/12/03 02:28:47;;;;;;;23.70;14.13;;;-2.10;1.00;;;;;;7376064;19;19918;-69
2023/12/03 02:31:17;;;;;;;20.10;14.52;;;-2.10;1.00;;;;;;7375676;19;20006;-69
2023/12/03 02:33:57;;;;;;;21.33;14.40;;;-2.00;1.00;;;;;;7375567;19;20011;-69
2023/12/03 02:36:27;;;;;;;23.42;14.93;;;-2.10;1.00;;;;;;6863908;19;2003967;-69
2023/12/03 02:39:00;;;;;;;23.23;14.60;;;-2.00;1.00;;;;;;7374365;19;20037;-68
2023/12/03 02:41:30;;;;;;;25.17;14.48;;;-2.00;1.00;;;;;;7374565;19;20018;-69
2023/12/03 02:44:00;;;;;;;23.75;15.50;;;-2.00;1.00;;;;;;7373445;19;20017;-69
2023/12/03 02:46:30;;;;;;;23.63;14.52;;;-2.00;1.00;;;;;;7374734;19;20024;-68
2023/12/03 02:49:00;;;;;;;23.67;14.52;;;-2.00;1.00;;;;;;7374489;19;20013;-69
2023/12/03 02:51:30;;;;;;;21.85;14.48;;;-2.00;1.00;;;;;;7375648;19;20035;-69
2023/12/03 02:54:03;;;;;;;23.85;14.25;;;-2.10;1.00;;;;;;7374321;19;20017;-69
2023/12/03 02:56:35;;;;;;;23.95;14.85;;;-2.00;1.00;;;;;;7372466;19;20626;-69
2023/12/03 02:59:05;;;;;;;22.40;14.57;;;-2.00;1.00;;;;;;7374586;19;20011;-69
2023/12/03 03:01:35;;;;;;;23.20;14.95;;;-1.90;1.00;;;;;;7375552;19;20014;-69
2023/12/03 03:04:06;;;;;;;20.33;13.80;;;-1.90;1.00;;;;;;7373873;19;20014;-68
2023/12/03 03:06:36;;;;;;;21.58;13.43;;;-1.90;1.00;;;;;;7374281;19;20018;-68
2023/12/03 03:09:09;;;;;;;22.30;14.35;;;-2.00;1.00;;;;;;7380516;19;20089;-68
2023/12/03 03:11:39;;;;;;;22.58;14.10;;;-2.00;1.00;;;;;;7380959;19;20014;-68
2023/12/03 03:14:08;;;;;;;21.05;13.73;;;-2.10;1.00;;;;;;7379635;19;20036;-69
2023/12/03 03:16:38;;;;;;;18.40;12.90;;;-2.10;1.00;;;;;;7380802;19;20011;-69
2023/12/03 03:19:08;;;;;;;20.50;13.32;;;-2.10;1.00;;;;;;7381227;19;20013;-69
2023/12/03 03:21:40;;;;;;;20.08;13.27;;;-2.00;1.00;;;;;;7381288;19;20416;-69
2023/12/03 03:24:13;;;;;;;22.85;14.38;;;-2.00;1.00;;;;;;7380556;19;20081;-68
2023/12/03 03:26:43;;;;;;;19.70;12.57;;;-2.00;1.00;;;;;;7379806;19;20018;-69
2023/12/03 03:29:13;;;;;;;17.83;12.27;;;-2.10;1.00;;;;;;7381413;19;20010;-69
2023/12/03 03:31:43;;;;;;;19.63;12.98;;;-2.10;1.00;;;;;;7380100;19;20030;-69
2023/12/03 03:34:13;;;;;;;21.13;13.80;;;-2.10;1.00;;;;;;7379563;19;20506;-69
2023/12/03 03:36:43;;;;;;;19.67;12.85;;;-2.10;1.00;;;;;;7380268;19;20031;-69
2023/12/03 03:39:15;;;;;;;19.52;13.82;;;-2.10;1.00;;;;;;7380954;19;20017;-69
2023/12/03 03:41:46;;;;;;;18.38;12.38;;;-2.10;1.00;;;;;;7379995;19;20025;-69
2023/12/03 03:44:16;;;;;;;17.48;12.02;;;-2.10;1.00;;;;;;7379380;19;20754;-69
2023/12/03 03:46:51;;;;;;;17.33;12.07;;;-2.10;1.00;;;;;;7377236;19;20387;-68
2023/12/03 03:49:23;;;;;;;18.70;12.73;;;-2.10;1.00;;;;;;7376067;19;20814;-69
2023/12/03 03:51:53;;;;;;;17.60;11.95;;;-2.10;1.00;;;;;;7378983;19;20014;-69
2023/12/03 03:54:26;;;;;;;17.83;11.30;;;-2.20;1.00;;;;;;7379394;19;20082;-69
2023/12/03 03:56:56;;;;;;;19.15;12.48;;;-2.20;1.00;;;;;;7378877;19;20449;-69
2023/12/03 03:59:26;;;;;;;15.75;11.40;;;-2.20;1.00;;;;;;7379064;19;20010;-69
2023/12/03 04:01:56;;;;;;;16.00;11.13;;;-2.30;1.00;;;;;;7379448;19;20007;-69
2023/12/03 04:04:26;;;;;;;16.95;11.35;;;-2.30;1.00;;;;;;7378583;19;20161;-69
2023/12/03 04:06:56;;;;;;;15.18;10.35;;;-2.30;1.00;;;;;;7382727;19;20058;-69
2023/12/03 04:09:30;;;;;;;16.77;10.73;;;-2.40;1.00;;;;;;7384630;19;20014;-69
2023/12/03 04:12:00;;;;;;;14.27;10.67;;;-2.30;1.00;;;;;;7380041;19;20018;-68
2023/12/03 04:14:30;;;;;;;15.15;10.25;;;-2.40;1.00;;;;;;7379558;19;20292;-68
2023/12/03 04:17:00;;;;;;;17.33;11.27;;;-2.40;1.00;;;;;;7379025;19;20387;-68
2023/12/03 04:19:30;;;;;;;18.00;11.50;;;-2.40;1.00;;;;;;7378355;19;20021;-68
2023/12/03 04:22:00;;;;;;;14.73;10.27;;;-2.30;1.00;;;;;;7380061;19;20027;-68
2023/12/03 04:24:32;;;;;;;16.45;11.25;;;-2.30;1.00;;;;;;7377843;19;20467;-68
2023/12/03 04:27:03;;;;;;;17.13;11.05;;;-2.30;1.00;;;;;;7377497;19;20006;-68
2023/12/03 04:29:33;;;;;;;15.65;10.93;;;-2.30;1.00;;;;;;7378552;19;20022;-67
2023/12/03 04:32:03;;;;;;;16.27;11.20;;;-2.30;1.00;;;;;;7378271;19;20038;-67
2023/12/03 04:34:33;;;;;;;15.60;10.82;;;-2.40;1.00;;;;;;7378946;19;20360;-68
2023/12/03 04:37:03;;;;;;;15.82;10.57;;;-2.40;1.00;;;;;;7378892;19;20047;-69
2023/12/03 04:39:36;;;;;;;15.20;10.25;;;-2.40;1.00;;;;;;7378760;19;20827;-68
2023/12/03 04:42:07;;;;;;;15.07;10.85;;;-2.40;1.00;;;;;;7377960;19;20066;-68
2023/12/03 04:44:37;;;;;;;16.60;10.82;;;-2.40;1.00;;;;;;7378639;19;20025;-68
2023/12/03 04:47:07;;;;;;;17.20;11.30;;;-2.40;1.00;;;;;;7376277;19;20817;-69
2023/12/03 04:49:37;;;;;;;14.45;10.13;;;-2.40;1.00;;;;;;7377385;19;20014;-68
2023/12/03 04:52:08;;;;;;;14.07;10.63;;;-2.50;1.00;;;;;;7377608;19;20031;-69
2023/12/03 04:54:40;;;;;;;14.45;10.55;;;-2.50;1.00;;;;;;7376747;19;20010;-69
2023/12/03 04:57:10;;;;;;;16.27;10.80;;;-2.40;1.00;;;;;;7376601;19;20014;-71
2023/12/03 04:59:40;;;;;;;15.70;10.60;;;-2.50;1.00;;;;;;7378352;19;20402;-69
2023/12/03 05:02:10;;;;;;;15.95;11.15;;;-2.50;1.00;;;;;;7378623;19;20348;-69
2023/12/03 05:04:40;;;;;;;15.18;10.45;;;-2.50;1.00;;;;;;7378260;19;20024;-69
2023/12/03 05:07:10;;;;;;;17.90;11.73;;;-2.60;1.00;;;;;;7377383;19;20031;-68
2023/12/03 05:09:44;;;;;;;17.25;12.10;;;-2.60;1.00;;;;;;7377651;19;20010;-68
2023/12/03 05:12:14;;;;;;;19.23;11.73;;;-2.60;1.00;;;;;;7377565;19;20032;-69
2023/12/03 05:14:44;;;;;;;16.60;11.27;;;-2.60;1.00;;;;;;7376417;19;20112;-68
2023/12/03 05:17:14;;;;;;;16.27;11.38;;;-2.70;1.00;;;;;;7376993;19;20042;-69
2023/12/03 05:19:45;;;;;;;16.45;10.95;;;-2.80;1.00;;;;;;7378494;19;20797;-69
2023/12/03 05:22:15;;;;;;;15.93;11.00;;;-2.80;1.00;;;;;;7376751;19;20023;-68
2023/12/03 05:24:48;;;;;;;17.27;11.90;;;-2.90;1.00;;;;;;7377041;19;20029;-68
2023/12/03 05:27:18;;;;;;;16.10;11.35;;;-3.00;1.00;;;;;;7376071;19;20082;-69
2023/12/03 05:29:48;;;;;;;18.70;11.68;;;-3.00;1.00;;;;;;7376734;19;20515;-68
2023/12/03 05:32:18;;;;;;;18.08;11.85;;;-3.00;1.00;;;;;;7375718;19;20010;-68
2023/12/03 05:34:49;;;;;;;18.75;12.55;;;-3.20;1.00;;;;;;7376719;19;20494;-69
2023/12/03 05:37:20;;;;;;;18.65;12.77;;;-3.30;1.00;;;;;;7375726;19;20015;-69
2023/12/03 05:39:53;;;;;;;18.85;12.77;;;-3.40;1.00;;;;;;7375569;19;20181;-69
2023/12/03 05:42:23;;;;;;;21.98;13.45;;;-3.40;1.00;;;;;;7372889;19;20010;-68
2023/12/03 05:44:53;;;;;;;20.35;13.40;;;-3.40;1.00;;;;;;7377782;19;20006;-68
2023/12/03 05:47:23;;;;;;;18.27;12.45;;;-3.50;1.00;;;;;;7373401;19;20083;-69
2023/12/03 05:49:54;;;;;;;20.50;14.02;;;-3.40;1.00;;;;;;7373984;19;20025;-69
2023/12/03 05:52:24;;;;;;;19.50;12.73;;;-3.50;1.00;;;;;;7373166;19;20022;-68
2023/12/03 05:54:57;;;;;;;20.63;13.60;;;-3.50;1.00;;;;;;7374473;19;20017;-68
2023/12/03 05:57:27;;;;;;;19.50;12.93;;;-3.50;1.00;;;;;;7371452;19;20027;-70
2023/12/03 05:59:57;;;;;;;21.80;13.23;;;-3.60;1.00;;;;;;7374384;19;20011;-68
2023/12/03 06:02:27;;;;;;;20.63;13.50;;;-3.70;1.00;;;;;;7375837;19;20018;-68
2023/12/03 06:04:57;;;;;;;20.65;13.15;;;-3.60;1.00;;;;;;7376470;19;20399;-69
2023/12/03 06:07:27;;;;;;;20.58;12.88;;;-3.60;1.00;;;;;;7376033;19;20413;-68
2023/12/03 06:10:00;;;;;;;20.08;13.52;;;-3.70;1.00;;;;;;7376610;19;20014;-67
2023/12/03 06:12:30;;;;;;;21.80;13.05;;;-3.80;1.00;;;;;;7376490;19;20022;-69
2023/12/03 06:15:00;;;;;;;22.10;14.27;;;-3.70;1.00;;;;;;7376125;19;20014;-69
2023/12/03 06:17:30;;;;;;;20.10;13.50;;;-3.70;1.00;;;;;;7375501;19;20009;-69
2023/12/03 06:20:00;;;;;;;20.75;12.02;;;-3.80;1.00;;;;;;7374837;19;20013;-68
2023/12/03 06:22:30;;;;;;;20.92;13.57;;;-3.80;1.00;;;;;;7374989;19;20799;-69
2023/12/03 06:25:02;;;;;;;20.73;13.52;;;-3.80;1.00;;;;;;7380645;19;20007;-69
2023/12/03 06:27:33;;;;;;;20.52;13.30;;;-3.90;1.00;;;;;;7377283;19;20010;-68
2023/12/03 06:30:03;;;;;;;21.90;14.27;;;-3.90;1.00;;;;;;7377148;19;20501;-68
2023/12/03 06:32:33;;;;;;;22.45;14.25;;;-4.00;1.00;;;;;;7376126;19;20013;-69
2023/12/03 06:35:04;;;;;;;23.67;14.05;;;-3.90;1.00;;;;;;7376490;19;20018;-69
2023/12/03 06:37:34;;;;;;;19.55;13.30;;;-3.90;1.00;;;;;;7376143;19;20081;-69
2023/12/03 06:40:08;;;;;;;22.52;14.52;;;-3.90;1.00;;;;;;7374612;19;20017;-69
2023/12/03 06:42:38;;;;;;;22.55;14.38;;;-4.00;1.00;;;;;;7372616;19;20014;-69
2023/12/03 06:45:09;;;;;;;24.85;15.98;;;-3.90;1.00;;;;;;7372760;19;20015;-68
2023/12/03 06:47:39;;;;;;;22.55;14.00;;;-3.80;1.00;;;;;;7374419;19;20036;-67
2023/12/03 06:50:10;;;;;;;23.38;14.93;;;-3.80;1.00;;;;;;7376008;19;20035;-68
2023/12/03 06:52:40;;;;;;;20.67;13.23;;;-3.80;1.00;;;;;;7375482;19;20440;-68
2023/12/03 06:55:14;;;;;;;20.02;14.00;;;-3.90;1.00;;;;;;7375592;19;20107;-67
2023/12/03 06:57:44;;;;;;;22.92;14.27;;;-3.90;1.00;;;;;;7376194;19;20018;-68
2023/12/03 07:00:15;;;;;;;21.25;12.88;;;-4.00;1.00;;;;;;7377683;19;20014;-68
2023/12/03 07:02:45;;;;;;;23.23;14.63;;;-3.90;1.00;;;;;;7375616;19;20018;-68
2023/12/03 07:05:16;;;;;;;24.40;14.98;;;-3.90;1.00;;;;;;7374636;19;20029;-68
2023/12/03 07:07:48;;;;;;;22.75;14.90;;;-3.90;1.00;;;;;;7374969;19;20393;-68
2023/12/03 07:10:21;;;;;;;25.20;15.45;;;-3.80;1.00;;;;;;7376040;19;20021;-67
2023/12/03 07:12:51;;;;;;;23.30;15.70;;;-3.80;1.00;;;;;;7375973;19;20007;-68
2023/12/03 07:15:21;;;;;;;21.30;14.43;;;-3.80;1.00;;;;;;7375556;19;20006;-68
2023/12/03 07:17:51;;;;;;;23.92;14.32;;;-3.80;1.00;;;;;;7374466;19;20022;-68
2023/12/03 07:20:22;;;;;;;21.55;14.57;;;-3.80;1.00;;;;;;7376399;19;20032;-67
2023/12/03 07:22:52;;;;;;;21.73;14.77;;;-3.80;1.00;;;;;;7374341;19;20214;-68
2023/12/03 07:25:25;;;;;;;22.42;14.98;;;-3.70;1.00;;;;;;7375148;19;20010;-69
2023/12/03 07:27:55;;;;;;;21.63;14.15;;;-3.80;1.00;;;;;;7375301;19;20012;-67
2023/12/03 07:30:26;;;;;;;23.38;13.48;;;-3.80;1.00;;;;;;7371365;19;20014;-68
2023/12/03 07:32:56;;;;;;;23.38;15.32;;;-3.80;1.00;;;;;;7375868;19;20010;-68
2023/12/03 07:35:26;;;;;;;22.10;13.85;;;-3.70;1.00;;;;;;7371065;19;20048;-68
2023/12/03 07:37:56;;;;;;;23.85;15.70;;;-3.60;1.00;;;;;;7375008;19;20409;-68
2023/12/03 07:40:29;;;;;;;23.52;15.73;;;-3.60;1.00;;;;;;7375588;19;20025;-68
2023/12/03 07:42:59;;;;;;;22.92;15.15;;;-3.50;1.00;;;;;;7375247;19;20024;-68
2023/12/03 07:45:29;;;;;;;23.60;14.73;;;-3.40;1.00;;;;;;7371717;19;20010;-67
2023/12/03 07:47:59;;;;;;;25.80;16.63;;;-3.40;1.00;;;;;;7374681;19;20454;-68
2023/12/03 07:50:29;;;;;;;23.40;15.38;;;-3.40;1.00;;;;;;7374346;19;20014;-67
2023/12/03 07:52:59;;;;;;;27.63;15.77;;;-3.40;1.00;;;;;;7374053;19;20006;-69
2023/12/03 07:55:32;;;;;;;23.75;14.95;;;-3.40;1.00;;;;;;7374126;19;20007;-67
2023/12/03 07:58:02;;;;;;;23.27;15.48;;;-3.20;1.00;;;;;;7379594;19;20016;-66
2023/12/03 08:00:32;;;;;;;22.90;14.88;;;-3.10;1.00;;;;;;7380195;19;20022;-68
2023/12/03 08:03:02;;;;;;;24.05;15.00;;;-3.10;1.00;;;;;;7380035;19;20015;-68
2023/12/03 08:05:32;;;;;;;22.10;14.90;;;-3.10;1.00;;;;;;7379547;19;20015;-68
2023/12/03 08:08:02;;;;;;;24.70;14.82;;;-3.10;1.00;;;;;;7382208;19;20037;-69
2023/12/03 08:10:34;;;;;;;23.88;14.52;;;-3.10;1.00;;;;;;7380038;19;20014;-68
2023/12/03 08:13:04;;;;;;;24.48;14.90;;;-3.00;1.00;;;;;;7381504;19;19999;-68
2023/12/03 08:15:35;;;;;;;22.70;14.57;;;-3.00;1.00;;;;;;7379003;19;20011;-68
2023/12/03 08:18:05;;;;;;;24.40;15.52;;;-3.00;1.00;;;;;;7382406;19;20006;-68
2023/12/03 08:20:35;;;;;;;24.65;15.35;;;-3.00;1.00;;;;;;7379292;19;20010;-67
2023/12/03 08:23:05;;;;;;;23.27;15.32;;;-2.80;1.00;;;;;;7379992;19;20002;-68
2023/12/03 08:25:40;;;;;;;25.23;15.25;;;-2.90;1.00;;;;;;7379432;19;20014;-68
2023/12/03 08:28:13;;;;;;;22.95;14.70;;;-2.90;1.00;;;;;;7379682;19;20018;-68
2023/12/03 08:30:43;;;;;;;24.63;15.73;;;-2.70;1.00;;;;;;7379134;19;20014;-68
2023/12/03 08:33:16;;;;;;;22.48;14.90;;;-2.70;1.00;;;;;;7378915;19;20014;-68
2023/12/03 08:35:46;;;;;;;25.15;15.40;;;-2.50;1.00;;;;;;7378727;19;20027;-68
2023/12/03 08:38:16;;;;;;;26.80;16.40;;;-2.60;1.00;;;;;;7380267;19;20728;-68
2023/12/03 08:40:49;;;;;;;24.23;15.40;;;-2.50;1.00;;;;;;7382955;19;20467;-69
2023/12/03 08:43:22;;;;;;;26.00;16.67;;;-2.30;1.00;;;;;;7380924;19;20026;-68
2023/12/03 08:45:52;;;;;;;23.20;15.52;;;-2.30;1.00;;;;;;7377217;19;20016;-69
2023/12/03 08:48:22;;;;;;;24.77;15.35;;;-2.30;1.00;;;;;;7380008;19;20085;-68
2023/12/03 08:50:56;;;;;;;23.20;14.73;;;-2.30;1.00;;;;;;7379554;19;20467;-68
2023/12/03 08:53:26;;;;;;;27.65;15.88;;;-2.20;1.00;;;;;;7379819;19;20720;-68
2023/12/03 08:56:00;;;;;;;46.40;27.77;;;-2.20;1.00;;;;;;7377207;19;20366;-69
2023/12/03 08:58:30;;;;;;;22.65;14.27;;;-2.10;1.00;;;;;;7377383;19;20018;-69
2023/12/03 09:01:00;;;;;;;25.45;15.18;;;-2.10;1.00;;;;;;7378296;19;20118;-68
2023/12/03 09:03:30;;;;;;;22.58;14.43;;;-2.20;1.00;;;;;;7377477;19;20393;-68
2023/12/03 09:06:00;;;;;;;22.42;14.95;;;-2.10;1.00;;;;;;7374748;19;20097;-67
2023/12/03 09:08:31;;;;;;;22.88;14.82;;;-2.00;1.00;;;;;;7380690;19;20010;-67
2023/12/03 09:11:04;;;;;;;22.90;14.45;;;-1.90;1.00;;;;;;7378361;19;20031;-67
2023/12/03 09:13:34;;;;;;;21.33;14.38;;;-2.00;1.00;;;;;;7375101;19;20041;-70
2023/12/03 09:16:04;;;;;;;25.40;15.40;;;-2.00;1.00;;;;;;7379893;19;20011;-69
2023/12/03 09:18:38;;;;;;;21.98;15.00;;;-1.80;1.00;;;;;;7378658;19;20010;-70
2023/12/03 09:21:11;;;;;;;;;;;-1.80;1.00;;;;;;7377789;19;20110;-69
2023/12/03 09:23:42;;;;;;;22.63;14.90;;;-1.80;1.00;;;;;;7378663;19;20295;-69
2023/12/03 09:26:16;;;;;;;24.15;14.57;;;-1.70;1.00;;;;;;7375534;19;19999;-69
2023/12/03 09:28:46;;;;;;;22.20;14.17;;;-1.60;1.00;;;;;;7381014;19;20035;-70
2023/12/03 09:31:16;;;;;;;22.27;14.95;;;-1.60;1.00;;;;;;7378979;19;20266;-68
2023/12/03 09:33:46;;;;;;;25.30;16.20;;;-1.60;1.00;;;;;;7378403;19;20014;-69
2023/12/03 09:36:16;;;;;;;23.33;14.90;;;-1.70;1.00;;;;;;7377686;19;20021;-67
2023/12/03 09:38:46;;;;;;;23.85;14.70;;;-1.60;1.00;;;;;;7378548;19;20033;-67
2023/12/03 09:41:21;;;;;;;23.85;15.40;;;-1.60;1.00;;;;;;7377907;19;20376;-68
2023/12/03 09:43:58;;;;;;;22.50;15.32;;;-1.50;1.00;;;;;;7377731;19;20804;-67
2023/12/03 09:46:32;;;;;;;22.60;14.95;;;-1.50;1.00;;;;;;7377777;19;20406;-69
2023/12/03 09:49:03;;;;;;;23.23;14.43;;;-1.50;1.00;;;;;;7376484;19;20019;-68
2023/12/03 09:51:35;;;;;;;27.33;16.35;;;-1.50;1.00;;;;;;7374945;19;20608;-69
2023/12/03 09:54:09;;;;;;;23.63;15.57;;;-1.50;1.00;;;;;;7373518;19;20010;-70
2023/12/03 09:56:42;;;;;;;25.33;16.30;;;-1.40;1.00;;;;;;7375729;19;20121;-69
2023/12/03 09:59:13;;;;;;;24.77;15.70;;;-1.30;1.00;;;;;;7376191;19;20391;-68
2023/12/03 10:01:44;;;;;;;23.42;16.27;;;-1.30;1.00;;;;;;7377609;19;20022;-69
2023/12/03 10:04:14;;;;;;;22.90;15.10;;;-1.20;1.00;;;;;;7375858;19;20007;-68
2023/12/03 10:06:46;;;;;;;23.65;16.02;;;-1.10;1.00;;;;;;7375383;19;20047;-68
2023/12/03 10:09:17;;;;;;;27.50;16.50;;;-1.30;1.00;;;;;;7378477;19;20011;-69
2023/12/03 10:11:56;;;;;;;25.48;15.68;;;-1.10;1.00;;;;;;7379084;19;20072;-68
2023/12/03 10:14:27;;;;;;;25.52;15.77;;;-1.30;1.00;;;;;;7377090;19;22948;-68
2023/12/03 10:16:57;;;;;;;24.38;15.40;;;-1.40;1.00;;;;;;7375938;19;20026;-68
2023/12/03 10:19:28;;;;;;;26.73;16.77;;;-1.40;1.00;;;;;;7377085;19;20023;-69
2023/12/03 10:22:00;;;;;;;26.58;16.70;;;-1.10;1.00;;;;;;7377615;19;20006;-69
2023/12/03 10:24:30;;;;;;;26.08;15.50;;;-1.10;1.00;;;;;;7376641;19;20006;-67
2023/12/03 10:27:04;;;;;;;25.63;17.05;;;-1.20;1.00;;;;;;7376424;19;20036;-69
2023/12/03 10:29:34;;;;;;;25.83;16.25;;;-1.10;1.00;;;;;;7375966;19;20066;-69
2023/12/03 10:32:04;;;;;;;25.33;16.60;;;-0.90;1.00;;;;;;7374632;19;20842;-69
2023/12/03 10:34:34;;;;;;;29.63;16.85;;;-0.90;1.00;;;;;;7376955;19;20006;-68
2023/12/03 10:37:04;;;;;;;25.23;15.70;;;-0.90;1.00;;;;;;7375984;19;20106;-69
2023/12/03 10:39:35;;;;;;;24.15;15.45;;;-0.80;1.00;;;;;;7375628;19;20017;-69
2023/12/03 10:42:08;;;;;;;26.80;15.35;;;-0.90;1.00;;;;;;7376562;19;20787;-67
2023/12/03 10:44:40;;;;;;;25.58;15.55;;;-0.80;1.00;;;;;;7378755;19;20018;-68
2023/12/03 10:47:10;;;;;;;27.05;16.05;;;-0.70;1.00;;;;;;7373890;19;20011;-68
2023/12/03 10:49:41;;;;;;;24.73;15.15;;;-0.70;1.00;;;;;;7376681;19;20034;-68
2023/12/03 10:52:12;;;;;;;25.23;15.05;;;-0.90;1.00;;;;;;7377042;19;20018;-68
2023/12/03 10:54:42;;;;;;;22.40;15.43;;;-0.80;1.00;;;;;;7375449;19;20025;-68
2023/12/03 10:57:15;;;;;;;22.65;15.25;;;-0.90;1.00;;;;;;7376932;19;20530;-66
2023/12/03 10:59:50;;;;;;;23.67;14.23;;;-0.90;1.00;;;;;;7378691;19;20002;-68
2023/12/03 11:02:24;;;;;;;28.83;16.85;;;-0.70;1.00;;;;;;7376995;19;20014;-68
2023/12/03 11:05:01;;;;;;;26.80;16.45;;;-0.60;1.00;;;;;;7377357;19;20010;-69
2023/12/03 11:07:32;;;;;;;23.80;15.30;;;-0.60;1.00;;;;;;7375020;19;20006;-69
2023/12/03 11:10:02;;;;;;;22.75;14.27;;;-0.90;1.00;;;;;;7376901;19;20011;-69
2023/12/03 11:12:36;;;;;;;23.20;15.20;;;-1.00;1.00;;;;;;7375928;19;20027;-69
2023/12/03 11:15:08;;;;;;;22.83;14.82;;;-0.70;1.00;;;;;;7377252;19;20432;-69
2023/12/03 11:17:44;;;;;;;24.13;14.73;;;-0.60;1.00;;;;;;7373990;19;20018;-68
2023/12/03 11:20:18;;;;;;;24.92;15.77;;;-0.60;1.00;;;;;;7374286;19;19999;-68
2023/12/03 11:23:02;;;;;;;23.85;15.32;;;-0.60;1.00;;;;;;7375157;19;20010;-67
2023/12/03 11:25:36;;;;;;;23.38;15.18;;;-0.70;1.00;;;;;;7375021;19;20082;-67
2023/12/03 11:28:10;;;;;;;24.05;16.00;;;-0.60;1.00;;;;;;7375405;19;20014;-67
2023/12/03 11:30:42;;;;;;;22.53;14.23;;;-0.30;1.00;;;;;;7381513;19;20010;-67
2023/12/03 11:33:15;;;;;;;26.95;15.70;;;-0.40;1.00;;;;;;7381427;19;20025;-67
2023/12/03 11:35:48;;;;;;;24.58;15.50;;;-0.50;1.00;;;;;;7381918;19;20014;-68
2023/12/03 11:38:32;;;;;;;23.42;16.10;;;-0.40;1.00;;;;;;7383204;19;20003;-68
2023/12/03 11:41:03;;;;;;;25.33;15.85;;;-0.30;1.00;;;;;;7383997;19;20677;-68
2023/12/03 11:43:36;;;;;;;24.75;15.18;;;-0.60;1.00;;;;;;7382041;19;20077;-68
2023/12/03 11:46:06;;;;;;;22.65;14.65;;;-0.80;1.00;;;;;;7384447;19;20002;-68
2023/12/03 11:48:38;;;;;;;22.70;14.93;;;-0.70;1.00;;;;;;7382623;19;20030;-67
2023/12/03 11:51:09;;;;;;;23.27;15.05;;;-0.80;1.00;;;;;;7384102;19;20070;-69
2023/12/03 11:53:51;;;;;;;26.15;16.50;;;-0.70;1.00;;;;;;7375166;19;20007;-67
2023/12/03 11:56:22;;;;;;;22.40;15.07;;;-0.80;1.00;;;;;;7381085;19;20919;-68
2023/12/03 11:58:59;;;;;;;26.93;15.07;;;-0.60;1.00;;;;;;7383414;19;20023;-68
2023/12/03 12:01:29;;;;;;;29.95;16.00;;;-0.40;1.00;;;;;;7382582;19;20006;-67
2023/12/03 12:03:59;;;;;;;22.05;14.63;;;-0.30;1.00;;;;;;7383443;19;20006;-68
2023/12/03 12:06:30;;;;;;;24.15;16.17;;;-0.30;1.00;;;;;;7380962;19;20075;-68
2023/12/03 12:09:00;;;;;;;24.33;15.93;;;-0.20;1.00;;;;;;7382867;19;20463;-68
2023/12/03 12:11:30;;;;;;;25.92;15.35;;;-0.20;1.00;;;;;;7381192;19;20033;-68
2023/12/03 12:14:03;;;;;;;24.48;16.10;;;-0.40;1.00;;;;;;7380913;19;20379;-68
2023/12/03 12:16:33;;;;;;;22.25;15.70;;;-0.70;1.00;;;;;;7379582;19;20011;-68
2023/12/03 12:19:05;;;;;;;24.23;15.50;;;-0.40;1.00;;;;;;7381112;19;20010;-68
2023/12/03 12:21:33;;;;;;;23.48;15.77;;;-0.40;1.00;;;;;;7383253;19;20086;-69
2023/12/03 12:24:03;;;;;;;26.90;16.10;;;-0.40;1.00;;;;;;7380254;19;20041;-69
2023/12/03 12:26:33;;;;;;;24.17;14.88;;;-0.40;1.00;;;;;;7380622;19;20009;-69
2023/12/03 12:29:06;;;;;;;24.35;16.42;;;-0.40;1.00;;;;;;7381188;19;20010;-69
2023/12/03 12:31:36;;;;;;;23.95;16.05;;;-0.30;1.00;;;;;;7382084;19;20059;-68
2023/12/03 12:34:07;;;;;;;24.65;16.13;;;-0.30;1.00;;;;;;7382229;19;20003;-69
2023/12/03 12:36:37;;;;;;;22.92;15.05;;;-0.30;1.00;;;;;;7379468;19;20598;-69
2023/12/03 12:39:07;;;;;;;25.27;15.10;;;-0.40;1.00;;;;;;7381864;19;20329;-69
2023/12/03 12:41:41;;;;;;;23.02;15.25;;;-0.40;1.00;;;;;;7380607;19;20018;-69
2023/12/03 12:44:13;;;;;;;25.05;16.40;;;-0.60;1.00;;;;;;7380361;19;20014;-69
2023/12/03 12:46:54;;;;;;;27.42;15.90;;;-0.40;1.00;;;;;;7375505;19;20111;-69
2023/12/03 12:49:24;;;;;;;28.35;15.45;;;-0.30;1.00;;;;;;7381031;19;20038;-70
2023/12/03 12:51:54;;;;;;;26.15;16.20;;;-0.40;1.00;;;;;;7381029;19;20019;-68
2023/12/03 12:54:24;;;;;;;24.55;16.15;;;-0.50;1.00;;;;;;7379207;19;20017;-69
2023/12/03 12:56:54;;;;;;;25.63;16.08;;;-0.50;1.00;;;;;;7381217;19;20013;-69